Summerland Sweets 3K - 2019

Photos: 3.2 km run:  https://photos.app.goo.gl/TpBC8jvTfTj9EEwT6

29 Sep 19

 

Please contact results@interiorrunningassociation.com if there are any errors.

 

Results Breakdown:

Previous results:

 

Full archives
Summerland Sweets 3.2K, 2019
PlaceDivplaceSexplaceNameCityDivTimePacePoints
1 1 1LIAM REIDPENTICTONM10-12 13:25 4:12 30
2 1 1EMILY JELLSUMMERLANDF13-15 14:20 4:29 30
3 2 2ALISTAIR MARTINSUMMERLANDM10-12 14:35 4:34 25
4 1 2PAYTON MITCHELLSUMMERLANDF10-12 14:50 4:39 25
5 2 3BREE CUTJARPENTICTONF10-12 14:59 4:41 22
6 3 3RYELAN MCDERMIDSUMMERLANDM10-12 15:21 4:48 22
7 4 4 DAWSON BOND VERNON M10-12 17:00 5:19 20
8 5 5 RUPERT HAVERKAMP SUMMERLAND M10-12 17:03 5:20 19
9 1 6 RICHARD HAVERKAMP SUMMERLAND M16-99 17:04 5:20 30
10 3 4 KATIE JELL SUMMERLAND F10-12 17:05 5:21 20
11 1 7 CASEY MCDERMID SUMMERLAND M13-15 17:07 5:21 18
12 4 5 ANNA FARBRIDGE PENTICTON F10-12 17:24 5:27 19
13 6 8 KYDEN HURST PENTICTON M10-12 17:34 5:30 17
14 5 6 CADENCE QUIGLEY KELOWNA F10-12 17:43 5:33 18
15 1 7 VIOLET PORCELLATO PENTICTON F01-9 17:51 5:35 17
16 2 8 JESSICA WILKIE PENTICTON F01-9 18:01 5:38 16
17 3 9 ELIN KONTKANEN PENTICTON F01-9 18:25 5:46 15
18 2 9 MIRKO PORCELLATO PENTICTON M16-99 18:51 5:54 30
19 1 10 TIDE KRUISWYK KELOWNA M01-9 19:30 6:06 16
20 4 10 GRACE SZABADI WEST KELOWNA F01-9 19:31 6:06 14
21 2 11 LUCAS BRADNER SUMMERLAND M01-9 19:46 6:11 15
22 3 12 DALLAS BRADNER SUMMERLAND M16-99 19:46 6:11 30
23 3 13 EMERSON MITCHELL SUMMERLAND M01-9 20:17 6:21 14
24 5 11 EVELYN MARTIN SUMMERLAND F01-9 20:17 6:21 13
25 1 12 LINNEA OPP SUMMERLAND F16-99 20:18 6:21 30
26 6 13 MADISON TRUESDELL LAKE COUNTRY F10-12 20:28 6:24 12
27 4 14 CHASE KNOWLTON SUMMERLAND M01-9 20:35 6:26 13
28 4 15 JOE MITCHELL SUMMERLAND M16-99 20:36 6:27 25
29 2 14 LINDSEY KEEN KALEDEN F16-99 20:43 6:29 30
30 6 15 BRIENNA DEVLIN PENTICTON F01-9 20:44 6:29 11
31 7 16 DANIELLE CUTJAR PENTICTON F10-12 20:44 6:29 10
32 7 17 HOLLY SZABADI WEST KELOWNA F01-9 20:45 6:30 9
33 3 18 KIM SZABADI WEST KELOWNA F16-99 20:47 6:30 30
34 5 16 PARKER KRUISWYK KELOWNA M01-9 20:47 6:30 12
35 8 19 DELLA GARTRELL WEST KELOWNA F10-12 21:54 6:51 8
36 6 17 FINN PORCELLATO PENTICTON M01-9 22:12 6:57 11
37 4 20 SARAH PORCELLATO PENTICTON F16-99 22:15 6:58 25
38 7 18 LUCAS GELLER VERNON M10-12 22:28 7:02 10
39 8 21 TAYLOR HURST PENTICTON F01-9 22:40 7:05 7
40 7 19 MILO MCDERMID SUMMERLAND M01-9 23:39 7:24 9
41 5 22 LINNAEA MCDERMID SUMMERLAND F16-99 23:39 7:24 22
42 2 23 SHAELYN TRUESDELL LAKE COUNTRY F13-15 23:44 7:25 6
43 8 20 COLE HURST PENTICTON M01-9 23:58 7:30 8
44 9 21 BENJAMIN WILKIE PENTICTON M01-9 24:00 7:30 7
45 6 24 MELANIE WILKIE PENTICTON F16-99 24:04 7:32 30
46 7 25 ANN HURST PENTICTON F16-99 24:05 7:32 20
47 9 26 ASTRID BRADNER SUMMERLAND F01-9 24:35 7:41 5
48 8 27 JANE BRADNER SUMMERLAND F16-99 24:35 7:41 25
49 8 22 MARKUS KONTKANEN PENTICTON M10-12 28:25 8:53 6
50 9 28 AMANDA KONTKANEN PENTICTON F16-99 28:27 8:54 30
51 10 29 ALICIA JELL SUMMERLAND F01-9 28:32 8:55 4
52 11 30 CLAIRA MCDERMID SUMMERLAND F01-9 28:33 8:56 3
53 5 23 GABE MCDERMID SUMMERLAND M16-99 28:35 8:56 22
54 12 31 AMELIA SUTHERLAND KELOWNA F01-9 28:55 9:03 2
55 13 32 ELOISE CARRIERE PENTICTON F01-9 32:54 10:17 1
56 6 24 FABIEN CARRIERE PENTICTON M16-99 32:54 10:17 30
57 14 33 SOPHIE JELL SUMMERLAND F01-9 32:54 10:17 1
58 10 34 JANINE JELL SUMMERLAND F16-99 32:54 10:17 19
59 15 35 DYLLAN STRINGER KELOWNA F01-9 41:00 12:49 1

 

↑ back to top

 

The Interior Running Association is generously sponsored by:
BC Athletics logo
Canadian Tire logo
BC Athletics Run BC logo
New Balance logo
Starting Block logo